Decoded Metar for KMBL (MANISTEE in MI, USA) (IATA:MBL) | Meteo·Mobile Aviation Weather
aviador You're here:

KMBL Decoded Metar

MANISTEE in MI, USA
Report Time2018-12-18 15:56:00
UTC Time2018-12-18 17:01:08
Flight Rules vfr VFR
Wind160° at 06 kt
W.Decomp.*RWY 18: 5.8 kt HW 1.5 kt LCW
RWY 09: 1.5 kt HW 5.8 kt RCW
W.Rank160° ranks 30
Current wind is above 160° avg. (5.8)
Visibility9999 m
Phenomena:N/A
Clouds:Few 022 Hf
Expected CloudBase > 1,600 ft AGL from Temp-Dew spread
CeilingNone
Temp-1°C (ISA -15)
Dew Point-5°C (75% RH)
AAT-5.8°C
QNH1023 hPa
Density Alt-1,467 ft
Elevation620 ft
Report Wrong Elevation
Raw Report
KMBL 181556Z AUTO 16006KT 10SM FEW022 M01/M05 A3022 RMK AO2
SNB14E26 SLP257 P0000 T10061050 FZRANO=

Extra information for KMBL:More info

Metar Taf Metar & Taf Last 4 Metars F.Rules Stats Wind Profile Meteogram Temp Stats Airport Information Weather charts Add Link Nearby VenuesMetar ALERT Operation Metar Decoded Social comments

AIRNAV info for KMBL